Time;durP1;ratioP1;P1;durP2;ratioP2;P2;SDS_P1;SDS_P2;PMS_P1;PMS_P2;Temp;Humidity;BMP_temperature;BMP_pressure;BME280_temperature;BME280_humidity;BME280_pressure;Samples;Min_cycle;Max_cycle;Signal;HPM_P1;HPM_P2
2023/07/19 00:04:39;;;;;;;14.18;5.05;;;;;;;19.62;73.07;99848.06;10413260;28;20037;-70
2023/07/19 00:09:40;;;;;;;12.23;5.28;;;;;;;20.04;73.63;99896.34;10411407;28;20073;-71
2023/07/19 00:14:41;;;;;;;20.95;5.43;;;;;;;19.90;73.28;99863.47;10395197;28;20132;-70
2023/07/19 00:19:41;;;;;;;19.02;5.80;;;;;;;19.63;73.64;99819.28;10371102;28;20058;-70
2023/07/19 00:24:42;;;;;;;15.90;5.78;;;;;;;19.89;74.09;99871.78;10371855;28;20088;-69
2023/07/19 00:29:43;;;;;;;19.95;5.65;;;;;;;19.29;74.38;99808.34;10371632;28;20042;-69
2023/07/19 00:34:43;;;;;;;9.73;4.95;;;;;;;19.51;74.80;99868.63;10371706;28;20034;-70
2023/07/19 00:39:44;;;;;;;20.33;5.40;;;;;;;19.10;75.51;99810.38;10373945;28;20549;-70
2023/07/19 00:44:45;;;;;;;17.33;5.47;;;;;;;18.70;75.56;99768.06;10379618;28;20084;-70
2023/07/19 00:49:46;;;;;;;24.55;5.55;;;;;;;19.47;75.57;99885.47;10377902;28;20042;-70
2023/07/19 00:54:46;;;;;;;16.08;5.60;;;;;;;19.48;75.96;99898.72;10378232;28;20042;-70
2023/07/19 00:59:47;;;;;;;33.88;6.10;;;;;;;19.22;76.05;99869.59;10378453;28;20481;-70
2023/07/19 01:04:48;;;;;;;83.68;9.85;;;;;;;19.10;76.43;99881.19;10398288;28;20033;-69
2023/07/19 01:09:50;;;;;;;90.97;9.38;;;;;;;19.12;77.29;99903.34;10419642;28;20053;-69
2023/07/19 01:14:50;;;;;;;17.83;6.22;;;;;;;18.91;77.16;99882.41;10419024;28;20409;-70
2023/07/19 01:19:51;;;;;;;23.23;5.97;;;;;;;19.07;77.86;99908.59;10418631;28;20072;-69
2023/07/19 01:24:55;;;;;;;23.33;6.35;;;;;;;18.94;77.80;99884.63;10418662;28;20060;-69
2023/07/19 01:29:58;;;;;;;26.90;6.38;;;;;;;18.88;79.01;99885.56;10418811;28;20038;-69
2023/07/19 01:34:59;;;;;;;31.63;6.60;;;;;;;18.90;78.46;99891.50;10417561;28;20038;-69
2023/07/19 01:40:01;;;;;;;70.63;8.48;;;;;;;18.82;78.60;99878.41;10417741;28;20045;-70
2023/07/19 01:45:01;;;;;;;21.90;6.50;;;;;;;18.48;78.56;99819.72;10417268;28;20152;-70
2023/07/19 01:50:03;;;;;;;25.23;6.80;;;;;;;18.81;78.60;99877.56;10416567;28;20040;-70
2023/07/19 01:55:04;;;;;;;38.72;6.05;;;;;;;18.80;78.99;99872.44;10416387;28;20041;-69
2023/07/19 02:00:05;;;;;;;30.85;6.55;;;;;;;18.52;78.95;99821.97;10415880;28;20047;-69
2023/07/19 02:05:07;;;;;;;34.05;6.68;;;;;;;18.68;78.93;99838.22;10417144;28;20391;-69
2023/07/19 02:10:08;;;;;;;34.17;6.65;;;;;;;18.55;78.83;99798.13;10416752;28;20045;-70
2023/07/19 02:15:10;;;;;;;30.30;6.40;;;;;;;19.19;78.92;99884.34;10416742;28;20037;-69
2023/07/19 02:20:12;;;;;;;16.80;5.90;;;;;;;18.61;78.59;99756.84;10415599;28;20061;-70
2023/07/19 02:25:13;;;;;;;31.58;6.25;;;;;;;19.16;78.23;99812.94;10412843;28;20491;-70
2023/07/19 02:30:14;;;;;;;11.95;5.40;;;;;;;19.80;77.97;99876.75;10416477;28;20038;-71
2023/07/19 02:35:14;;;;;;;12.65;5.10;;;;;;;19.80;77.28;99828.22;10416256;28;20548;-70
2023/07/19 02:40:15;;;;;;;12.35;5.47;;;;;;;20.48;76.25;99880.41;10415080;28;20512;-70
2023/07/19 02:45:16;;;;;;;11.40;4.55;;;;;;;20.66;74.85;99823.50;10414871;28;20037;-70
2023/07/19 02:50:20;;;;;;;16.77;5.07;;;;;;;21.71;72.57;99869.50;10413324;28;20404;-71
2023/07/19 02:55:24;;;;;;;11.02;4.53;;;;;;;22.27;69.06;99842.25;10403936;28;20037;-70
2023/07/19 03:00:25;;;;;;;16.83;4.68;;;;;;;22.77;68.00;99811.22;10413881;28;20135;-71
2023/07/19 03:05:25;;;;;;;20.38;5.28;;;;;;;23.42;66.65;99875.00;10414628;28;20116;-71
2023/07/19 03:10:27;;;;;;;11.90;4.15;;;;;;;23.65;65.65;99881.84;10413957;28;20413;-71
2023/07/19 03:15:32;;;;;;;10.70;4.40;;;;;;;23.99;64.18;99870.59;10414905;28;20045;-71
2023/07/19 03:20:33;;;;;;;12.95;4.65;;;;;;;23.63;64.50;99861.50;10414956;28;20115;-71
2023/07/19 03:25:34;;;;;;;12.63;4.53;;;;;;;23.72;63.86;99832.00;10413432;28;20037;-71
2023/07/19 03:30:35;;;;;;;13.95;4.32;;;;;;;24.27;63.09;99892.91;10413428;28;20041;-71
2023/07/19 03:35:36;;;;;;;15.00;4.47;;;;;;;24.87;60.36;99811.69;10413252;28;20038;-71
2023/07/19 03:40:36;;;;;;;14.35;4.68;;;;;;;26.61;57.74;99893.28;10414130;28;20179;-70
2023/07/19 03:45:39;;;;;;;9.95;4.00;;;;;;;27.69;54.35;99890.25;10412837;28;20049;-71
2023/07/19 03:50:40;;;;;;;19.42;4.85;;;;;;;28.51;53.05;99876.25;10412802;28;20180;-71
2023/07/19 03:55:40;;;;;;;10.02;4.10;;;;;;;29.07;51.66;99883.47;10413821;28;20111;-70
2023/07/19 04:00:41;;;;;;;13.43;4.00;;;;;;;29.36;50.39;99833.13;10402888;28;20045;-72
2023/07/19 04:05:42;;;;;;;14.52;3.80;;;;;;;29.98;49.39;99880.00;10398208;28;20091;-70
2023/07/19 04:10:43;;;;;;;13.57;4.65;;;;;;;29.91;48.89;99896.03;10411568;28;20441;-71
2023/07/19 04:15:44;;;;;;;16.90;4.75;;;;;;;28.89;49.73;99881.59;10399893;28;20049;-70
2023/07/19 04:20:45;;;;;;;15.68;4.65;;;;;;;28.12;51.45;99839.16;10417551;28;20061;-70
2023/07/19 04:25:46;;;;;;;16.67;8.27;;;;;;;27.66;52.12;99776.22;10419252;28;20436;-70
2023/07/19 04:30:46;;;;;;;12.30;5.43;;;;;;;28.11;50.65;99780.19;10413483;28;20046;-71
2023/07/19 04:35:47;;;;;;;15.30;4.50;;;;;;;28.72;50.61;99881.34;10416042;28;20405;-71
2023/07/19 04:40:48;;;;;;;12.75;3.80;;;;;;;28.67;50.78;99844.00;10419533;28;20041;-71
2023/07/19 04:45:49;;;;;;;11.23;3.50;;;;;;;28.45;50.45;99814.63;10420623;28;20041;-71
2023/07/19 04:50:56;;;;;;;9.88;3.30;;;;;;;29.32;48.22;99822.00;10418253;28;20049;-71
2023/07/19 04:55:57;;;;;;;9.75;3.90;;;;;;;29.86;47.32;99846.06;10419340;28;20128;-72
2023/07/19 05:01:08;;;;;;;16.60;3.40;;;;;;;30.93;45.28;99881.81;10418657;28;20052;-72
2023/07/19 05:06:08;;;;;;;8.15;3.22;;;;;;;30.60;44.60;99802.59;10419292;28;20040;-72
2023/07/19 05:11:09;;;;;;;7.32;3.40;;;;;;;30.95;43.88;99852.13;10419057;28;20037;-72
2023/07/19 05:16:10;;;;;;;18.23;3.38;;;;;;;30.92;44.38;99867.28;10418536;28;20072;-72
2023/07/19 05:21:11;;;;;;;7.82;3.08;;;;;;;30.18;43.81;99809.41;10418913;28;20562;-72
2023/07/19 05:26:12;;;;;;;8.00;3.03;;;;;;;29.83;44.98;99844.75;10417960;28;20073;-72
2023/07/19 05:31:12;;;;;;;11.73;3.05;;;;;;;29.66;45.18;99853.59;10417338;28;20562;-72
2023/07/19 05:36:13;;;;;;;8.15;3.03;;;;;;;28.90;45.38;99790.28;10418307;28;20041;-71
2023/07/19 05:41:14;;;;;;;7.80;3.20;;;;;;;29.09;44.68;99829.28;10417424;28;20049;-71
2023/07/19 05:46:14;;;;;;;12.90;3.13;;;;;;;28.61;45.02;99757.75;10417900;28;20068;-72
2023/07/19 05:51:15;;;;;;;7.03;2.88;;;;;;;29.42;44.50;99828.38;10417094;28;20045;-72
2023/07/19 05:56:16;;;;;;;10.65;2.85;;;;;;;29.69;43.03;99842.03;10417334;28;20044;-72
2023/07/19 06:01:17;;;;;;;6.00;2.78;;;;;;;29.85;43.29;99833.47;10417209;28;20135;-71
2023/07/19 06:06:18;;;;;;;12.65;3.25;;;;;;;29.85;41.67;99844.41;10417126;28;20129;-72
2023/07/19 06:11:19;;;;;;;8.50;2.80;;;;;;;29.33;42.87;99727.06;10416341;28;20132;-72
2023/07/19 06:16:20;;;;;;;8.38;3.05;;;;;;;30.03;41.37;99825.09;10416279;28;20048;-72
2023/07/19 06:21:22;;;;;;;7.38;2.80;;;;;;;29.98;41.71;99832.63;10415717;28;20435;-72
2023/07/19 06:26:22;;;;;;;7.67;2.77;;;;;;;30.31;41.67;99846.94;10416391;28;20083;-72
2023/07/19 06:31:24;;;;;;;12.18;2.85;;;;;;;30.27;40.91;99820.44;10416025;28;20493;-72
2023/07/19 06:36:26;;;;;;;14.02;2.72;;;;;;;30.38;40.29;99825.34;10415112;28;20037;-72
2023/07/19 06:41:27;;;;;;;7.30;2.45;;;;;;;30.35;40.05;99767.63;10415905;28;20563;-72
2023/07/19 06:46:28;;;;;;;6.90;2.83;;;;;;;30.86;39.88;99830.16;10415689;28;20040;-72
2023/07/19 06:51:28;;;;;;;9.02;2.50;;;;;;;30.84;39.86;99815.97;10415307;28;20084;-72
2023/07/19 06:56:29;;;;;;;9.88;3.13;;;;;;;30.94;39.11;99820.38;10414489;28;20559;-72
2023/07/19 07:01:30;;;;;;;8.30;2.50;;;;;;;30.98;39.70;99790.38;10414613;28;20083;-72
2023/07/19 07:06:31;;;;;;;12.15;2.78;;;;;;;31.21;40.11;99783.66;10413061;28;20033;-72
2023/07/19 07:11:35;;;;;;;15.10;3.15;;;;;;;31.47;39.45;99793.88;10414720;28;20041;-72
2023/07/19 07:16:36;;;;;;;9.02;2.70;;;;;;;31.05;38.39;99733.94;10412754;28;20041;-72
2023/07/19 07:21:36;;;;;;;5.75;2.30;;;;;;;31.45;37.93;99790.66;10414746;28;20065;-72
2023/07/19 07:26:37;;;;;;;5.20;2.50;;;;;;;31.47;37.49;99769.19;10414553;28;20424;-72
2023/07/19 07:31:38;;;;;;;12.13;2.42;;;;;;;31.60;37.50;99758.06;10413913;28;20516;-72
2023/07/19 07:36:39;;;;;;;13.57;2.63;;;;;;;31.55;36.74;99724.47;10413838;28;20044;-72
2023/07/19 07:41:39;;;;;;;6.25;2.60;;;;;;;31.92;36.71;99747.75;10413733;28;20045;-72
2023/07/19 07:46:40;;;;;;;4.60;2.30;;;;;;;31.97;35.87;99752.25;10413662;28;20049;-71
2023/07/19 07:51:42;;;;;;;8.30;2.50;;;;;;;32.14;35.56;99754.97;10411675;28;20485;-73
2023/07/19 07:56:42;;;;;;;9.25;2.78;;;;;;;31.95;35.31;99732.53;10411381;28;20413;-73
2023/07/19 08:01:43;;;;;;;12.00;2.67;;;;;;;31.47;36.27;99747.22;10412845;28;20049;-73
2023/07/19 08:06:44;;;;;;;6.90;2.50;;;;;;;30.86;36.99;99730.63;10413975;28;20042;-72
2023/07/19 08:11:44;;;;;;;6.90;2.40;;;;;;;30.65;37.27;99692.78;10412522;28;20037;-72
2023/07/19 08:16:47;;;;;;;7.78;2.63;;;;;;;31.19;38.02;99743.94;10412303;28;20033;-72
2023/07/19 08:21:47;;;;;;;12.43;2.47;;;;;;;31.67;36.58;99743.84;10412052;28;20061;-73
2023/07/19 08:26:51;;;;;;;6.97;2.38;;;;;;;32.19;35.19;99734.72;10413032;28;20044;-73
2023/07/19 08:31:51;;;;;;;19.65;2.60;;;;;;;32.25;35.48;99727.97;10410948;28;20034;-73
2023/07/19 08:36:52;;;;;;;8.18;2.50;;;;;;;32.42;35.11;99735.31;10413208;28;20128;-73
2023/07/19 08:41:53;;;;;;;7.90;3.20;;;;;;;32.00;35.75;99729.63;10411692;28;20041;-73
2023/07/19 08:46:55;;;;;;;4.85;2.63;;;;;;;32.23;34.32;99728.28;10412307;28;20087;-73
2023/07/19 08:51:56;;;;;;;7.57;2.55;;;;;;;32.07;34.74;99702.47;10411733;28;20042;-73
2023/07/19 08:56:57;;;;;;;5.32;2.35;;;;;;;31.59;35.20;99654.88;10411597;28;20037;-74
2023/07/19 09:01:57;;;;;;;8.00;2.90;;;;;;;31.26;36.42;99635.34;10415583;28;20041;-73
2023/07/19 09:07:02;;;;;;;4.93;2.22;;;;;;;31.99;36.18;99662.09;10418804;28;20041;-73
2023/07/19 09:12:07;;;;;;;6.32;2.33;;;;;;;32.80;34.13;99707.84;10420090;28;20045;-72
2023/07/19 13:53:51;;;;;;;13.70;3.58;;;;;;;31.34;36.42;99521.19;10479104;27;20416;-76
2023/07/19 13:58:52;;;;;;;12.07;3.50;;;;;;;31.29;36.95;99546.88;10512443;28;20454;-74
2023/07/19 14:03:53;;;;;;;15.15;4.03;;;;;;;30.77;37.29;99535.91;10515070;28;20340;-73
2023/07/19 14:08:53;;;;;;;12.77;2.90;;;;;;;30.15;37.99;99530.63;10495720;28;20075;-73
2023/07/19 14:13:54;;;;;;;7.35;2.72;;;;;;;30.11;38.88;99601.66;10522372;28;20042;-79
2023/07/19 14:18:55;;;;;;;4.18;2.40;;;;;;;29.84;39.50;99602.69;10535880;28;20380;-76
2023/07/19 14:23:56;;;;;;;7.22;2.83;;;;;;;29.55;39.70;99573.00;10571840;28;20084;-76
2023/07/19 14:28:57;;;;;;;15.45;3.05;;;;;;;29.66;40.56;99611.91;10567820;28;20461;-77
2023/07/19 14:33:58;;;;;;;12.32;3.38;;;;;;;29.74;40.59;99619.38;10563075;28;20119;-76
2023/07/19 14:38:59;;;;;;;10.95;3.97;;;;;;;29.38;40.59;99548.28;10552175;28;20042;-78
2023/07/19 14:43:59;;;;;;;9.25;3.53;;;;;;;29.82;40.33;99623.28;10547711;28;20031;-76
2023/07/19 14:49:01;;;;;;;12.18;4.15;;;;;;;29.52;40.36;99636.59;10568483;28;20044;-77
2023/07/19 14:54:03;;;;;;;9.05;3.42;;;;;;;28.95;40.96;99579.63;10569512;28;20048;-78
2023/07/19 14:59:04;;;;;;;10.03;3.60;;;;;;;29.13;41.20;99629.84;10567202;28;20130;-77
2023/07/19 15:04:05;;;;;;;15.00;3.85;;;;;;;28.97;41.57;99629.38;10543271;28;20166;-77
2023/07/19 15:09:06;;;;;;;10.43;3.45;;;;;;;28.37;42.43;99561.22;10537558;28;20122;-78
2023/07/19 15:14:06;;;;;;;6.05;3.38;;;;;;;28.70;42.86;99629.44;10540906;28;20065;-78
2023/07/19 15:19:07;;;;;;;15.30;4.05;;;;;;;28.62;43.22;99633.69;10540856;28;20089;-79
2023/07/19 15:24:08;;;;;;;11.80;3.60;;;;;;;28.50;43.54;99630.66;10540477;28;20105;-76
2023/07/19 15:29:09;;;;;;;13.32;4.32;;;;;;;28.53;43.91;99666.38;10540877;28;20073;-78
2023/07/19 15:34:10;;;;;;;9.35;3.63;;;;;;;28.18;44.54;99644.09;10541809;28;20036;-78
2023/07/19 15:39:12;;;;;;;10.57;3.60;;;;;;;27.84;45.22;99613.59;10542381;28;20487;-77
2023/07/19 15:44:12;;;;;;;6.50;4.18;;;;;;;27.91;45.78;99658.50;10541264;28;20052;-77
2023/07/19 15:49:13;;;;;;;14.00;4.45;;;;;;;28.07;46.38;99688.25;10540522;28;20079;-78
2023/07/19 15:54:14;;;;;;;55.92;6.13;;;;;;;27.93;47.01;99674.56;10540876;28;20032;-78
2023/07/19 15:59:15;;;;;;;11.93;4.03;;;;;;;27.69;47.32;99653.63;10537105;28;20504;-77
2023/07/19 16:04:17;;;;;;;14.52;4.45;;;;;;;27.83;48.06;99694.66;10517783;28;20041;-77
2023/07/19 16:09:17;;;;;;;6.75;4.28;;;;;;;27.34;48.40;99635.94;10534750;28;20451;-77
2023/07/19 16:14:18;;;;;;;13.10;4.45;;;;;;;27.70;49.10;99707.13;10520268;28;20484;-77
2023/07/19 16:19:19;;;;;;;18.95;4.20;;;;;;;27.40;49.61;99697.50;10539236;28;20074;-77
2023/07/19 16:24:20;;;;;;;17.38;4.35;;;;;;;27.49;50.16;99730.34;10537856;28;20131;-77
2023/07/19 16:29:21;;;;;;;11.52;4.22;;;;;;;27.36;50.19;99726.44;10523816;28;20407;-76
2023/07/19 16:34:21;;;;;;;14.65;4.50;;;;;;;27.31;50.91;99727.34;10516217;28;20044;-76
2023/07/19 16:39:22;;;;;;;11.20;4.22;;;;;;;26.94;51.44;99683.66;10490790;28;20029;-76
2023/07/19 16:44:23;;;;;;;13.13;3.85;;;;;;;27.01;52.00;99706.72;10497133;28;20044;-76
2023/07/19 16:49:24;;;;;;;7.05;4.15;;;;;;;26.83;52.17;99700.16;10497087;28;20500;-76
2023/07/19 16:54:25;;;;;;;15.20;4.10;;;;;;;27.05;52.02;99753.28;10519479;28;20040;-75
2023/07/19 16:59:26;;;;;;;6.43;3.83;;;;;;;26.94;51.96;99759.97;10537375;28;20411;-76
2023/07/19 17:04:26;;;;;;;6.40;4.00;;;;;;;26.58;51.80;99738.56;10536073;28;20067;-77
2023/07/19 17:09:27;;;;;;;7.00;3.78;;;;;;;26.16;51.76;99688.31;10523462;28;20120;-73
2023/07/19 17:14:28;;;;;;;14.35;4.18;;;;;;;26.50;52.26;99764.50;10530164;28;20035;-73
2023/07/19 17:19:29;;;;;;;9.55;4.35;;;;;;;26.63;53.05;99801.19;10531199;28;20554;-73
2023/07/19 17:24:29;;;;;;;15.18;4.10;;;;;;;26.43;53.51;99788.53;10529069;28;20512;-74
2023/07/19 17:29:30;;;;;;;11.82;3.95;;;;;;;26.42;54.04;99804.06;10534674;28;20120;-73
2023/07/19 17:34:31;;;;;;;11.10;4.38;;;;;;;26.34;54.78;99818.28;10532558;28;20040;-73
2023/07/19 17:39:32;;;;;;;9.50;4.22;;;;;;;26.24;54.63;99802.06;10533314;28;20040;-74
2023/07/19 17:44:35;;;;;;;9.27;4.93;;;;;;;26.05;55.23;99765.72;10523116;28;20043;-74
2023/07/19 17:49:36;;;;;;;9.98;3.95;;;;;;;26.23;55.31;99797.69;10527601;28;20067;-73
2023/07/19 17:54:37;;;;;;;6.13;3.85;;;;;;;26.11;55.47;99795.31;10524449;28;20043;-73
2023/07/19 17:59:41;;;;;;;14.32;4.75;;;;;;;26.21;55.44;99810.78;10531146;28;20040;-74
2023/07/19 18:04:44;;;;;;;6.80;4.45;;;;;;;26.07;55.90;99801.63;10512524;28;20556;-72
2023/07/19 18:09:45;;;;;;;4.90;3.80;;;;;;;25.91;56.03;99782.69;10534993;28;20063;-73
2023/07/19 18:14:45;;;;;;;8.75;4.13;;;;;;;26.04;56.24;99794.03;10519218;28;20135;-71
2023/07/19 18:19:46;;;;;;;16.95;4.75;;;;;;;25.75;56.71;99775.69;10523615;28;20043;-72
2023/07/19 18:24:47;;;;;;;14.90;4.32;;;;;;;25.78;57.34;99794.19;10529177;28;20046;-72
2023/07/19 18:29:48;;;;;;;9.93;4.20;;;;;;;25.88;57.33;99813.19;10501833;28;20036;-72
2023/07/19 18:34:48;;;;;;;14.68;4.38;;;;;;;25.72;57.40;99801.56;10502244;28;20055;-72
2023/07/19 18:39:49;;;;;;;12.95;4.60;;;;;;;25.44;58.12;99754.13;10521882;28;20044;-72
2023/07/19 18:44:50;;;;;;;13.07;4.90;;;;;;;25.78;58.48;99813.22;10525445;28;20029;-72
2023/07/19 18:49:51;;;;;;;14.57;3.97;;;;;;;25.44;58.57;99765.00;10502519;28;20135;-73
2023/07/19 18:54:52;;;;;;;11.38;4.00;;;;;;;25.78;58.49;99820.56;10501886;28;20131;-72
2023/07/19 18:59:53;;;;;;;15.75;4.53;;;;;;;25.77;59.37;99825.22;10500955;28;20044;-73
2023/07/19 19:04:53;;;;;;;11.93;4.63;;;;;;;25.65;60.42;99824.75;10501667;28;20048;-73
2023/07/19 19:09:54;;;;;;;13.23;4.88;;;;;;;25.39;60.76;99800.38;10530672;28;20039;-72
2023/07/19 19:14:57;;;;;;;13.82;4.55;;;;;;;24.96;61.52;99748.34;10522078;28;20044;-72
2023/07/19 19:19:58;;;;;;;20.38;5.13;;;;;;;25.33;61.56;99815.09;10515707;28;20044;-72
2023/07/19 19:24:59;;;;;;;9.95;4.68;;;;;;;25.18;62.06;99802.38;10523600;28;20036;-72
2023/07/19 19:30:00;;;;;;;7.80;4.28;;;;;;;25.31;62.51;99838.22;10520893;28;20059;-73
2023/07/19 19:35:00;;;;;;;18.63;5.25;;;;;;;25.15;63.22;99830.09;10516458;28;20469;-73
2023/07/19 19:40:01;;;;;;;12.90;4.45;;;;;;;25.12;62.77;99833.34;10498129;28;20040;-73
2023/07/19 19:45:03;;;;;;;15.18;4.95;;;;;;;24.50;63.52;99751.22;10541412;28;20040;-73
2023/07/19 19:50:05;;;;;;;9.05;4.45;;;;;;;24.97;63.47;99836.94;10541089;28;20056;-72
2023/07/19 19:55:06;;;;;;;9.90;4.65;;;;;;;24.86;63.85;99810.91;10523190;28;20046;-72
2023/07/19 20:00:08;;;;;;;9.27;4.93;;;;;;;24.53;63.24;99772.41;10540542;28;20073;-72
2023/07/19 20:05:09;;;;;;;6.45;4.47;;;;;;;24.74;63.35;99796.78;10540524;28;20087;-72
2023/07/19 20:10:09;;;;;;;8.70;4.32;;;;;;;25.06;63.06;99848.03;10524283;28;20070;-73
2023/07/19 20:15:11;;;;;;;7.35;4.28;;;;;;;24.96;62.82;99827.16;10514596;28;20053;-72
2023/07/19 20:20:12;;;;;;;10.82;3.88;;;;;;;25.05;62.87;99849.97;10485513;28;20441;-72
2023/07/19 20:25:13;;;;;;;6.03;3.88;;;;;;;24.24;62.63;99720.53;10501779;28;20181;-72
2023/07/19 20:30:14;;;;;;;13.48;4.03;;;;;;;24.33;62.37;99729.75;10497582;28;20039;-73
2023/07/19 20:35:15;;;;;;;10.00;4.38;;;;;;;24.65;62.23;99782.13;10498373;28;20043;-73
2023/07/19 20:40:15;;;;;;;12.57;4.15;;;;;;;24.44;62.36;99752.31;10497408;28;20067;-73
2023/07/19 20:45:16;;;;;;;33.92;4.72;;;;;;;24.92;64.09;99826.09;10497103;28;20043;-73
2023/07/19 20:50:17;;;;;;;7.90;4.22;;;;;;;24.32;64.88;99751.72;10497246;28;20684;-73
2023/07/19 20:55:20;;;;;;;22.40;4.93;;;;;;;24.53;66.56;99790.56;10497362;28;20389;-73
2023/07/19 21:00:21;;;;;;;14.90;4.85;;;;;;;24.65;66.30;99837.28;10497097;28;20048;-72
2023/07/19 21:05:22;;;;;;;9.13;4.18;;;;;;;24.21;66.70;99771.84;10497549;28;20131;-72
2023/07/19 21:10:26;;;;;;;8.68;4.20;;;;;;;24.19;67.01;99780.25;10496198;28;20067;-73
2023/07/19 21:15:26;;;;;;;8.70;4.75;;;;;;;23.91;67.56;99741.72;10496895;28;20040;-72
2023/07/19 21:20:27;;;;;;;11.50;4.50;;;;;;;24.26;67.73;99821.53;10495563;28;20515;-74
2023/07/19 21:25:28;;;;;;;8.52;4.75;;;;;;;24.10;68.25;99804.41;10496944;28;20032;-72
2023/07/19 21:30:29;;;;;;;18.45;5.90;;;;;;;23.93;69.11;99782.13;10495822;28;20457;-72
2023/07/19 21:35:30;;;;;;;30.27;6.53;;;;;;;23.91;69.51;99787.03;10495274;28;20028;-72
2023/07/19 21:40:32;;;;;;;12.57;6.57;;;;;;;23.88;70.41;99801.94;10477714;28;20458;-73
2023/07/19 21:45:35;;;;;;;8.30;5.50;;;;;;;23.74;70.56;99783.75;10496852;28;20558;-72
2023/07/19 21:50:39;;;;;;;18.80;6.05;;;;;;;23.66;70.57;99775.03;10477541;28;20063;-72
2023/07/19 21:55:40;;;;;;;27.45;7.25;;;;;;;23.43;71.37;99768.19;10495193;28;20063;-72
2023/07/19 22:00:45;;;;;;;17.00;6.88;;;;;;;23.61;72.37;99818.41;10495659;28;20040;-73
2023/07/19 22:05:46;;;;;;;14.50;6.05;;;;;;;23.55;72.18;99807.81;10495157;28;20040;-74
2023/07/19 22:10:48;;;;;;;13.63;6.75;;;;;;;23.51;72.94;99817.53;10495942;28;20055;-72
2023/07/19 22:15:48;;;;;;;11.38;6.15;;;;;;;23.32;72.96;99793.63;10503110;28;20048;-72
2023/07/19 22:20:51;;;;;;;11.55;6.93;;;;;;;23.36;73.31;99826.44;10484907;28;20040;-72
2023/07/19 22:25:53;;;;;;;12.35;6.88;;;;;;;23.35;73.35;99830.22;10512189;28;20048;-72
2023/07/19 22:30:55;;;;;;;15.27;7.63;;;;;;;23.24;73.93;99813.94;10545503;28;20040;-71
2023/07/19 22:35:55;;;;;;;13.90;6.32;;;;;;;23.34;73.75;99823.19;10521680;28;20111;-72
2023/07/19 22:40:56;;;;;;;16.20;7.40;;;;;;;22.81;74.19;99743.81;10502427;28;20389;-72
2023/07/19 22:45:59;;;;;;;21.75;7.20;;;;;;;23.33;75.06;99830.47;10502698;28;20051;-72
2023/07/19 22:51:02;;;;;;;12.63;5.40;;;;;;;23.39;72.81;99812.34;10484626;28;20056;-74
2023/07/19 22:56:03;;;;;;;23.25;6.38;;;;;;;23.43;72.95;99805.34;10502647;28;20048;-73
2023/07/19 23:01:04;;;;;;;8.55;5.25;;;;;;;22.56;72.57;99647.88;10502239;28;20448;-73
2023/07/19 23:06:07;;;;;;;6.72;4.45;;;;;;;23.62;71.60;99809.16;10501919;28;20068;-72
2023/07/19 23:11:07;;;;;;;7.30;4.22;;;;;;;23.62;71.96;99801.03;10502280;28;20037;-73
2023/07/19 23:16:08;;;;;;;14.93;4.22;;;;;;;23.79;71.18;99813.59;10483913;28;20036;-72
2023/07/19 23:21:09;;;;;;;6.53;4.38;;;;;;;23.85;70.87;99823.38;10482580;28;20079;-72
2023/07/19 23:26:10;;;;;;;8.70;4.50;;;;;;;23.95;70.05;99822.56;10500544;28;20098;-72
2023/07/19 23:31:10;;;;;;;9.75;4.15;;;;;;;23.61;69.90;99761.47;10501025;28;20078;-73
2023/07/19 23:36:11;;;;;;;9.88;3.83;;;;;;;23.89;69.67;99802.75;10501490;28;20174;-72
2023/07/19 23:41:12;;;;;;;6.00;3.75;;;;;;;23.77;69.37;99778.59;10481877;28;20048;-72
2023/07/19 23:46:16;;;;;;;5.75;3.55;;;;;;;23.53;68.94;99753.84;10499786;28;20044;-72
2023/07/19 23:51:17;;;;;;;6.97;3.40;;;;;;;23.84;68.74;99827.16;10499829;28;20500;-73
2023/07/19 23:56:17;;;;;;;5.43;3.33;;;;;;;23.92;68.99;99841.00;10499324;28;20102;-74
